Last 6 Hours

Alpine-Roundhouse Btm 6950'

15 Minute Data | America/Los_Angeles
as of 3/29/20 1:36 PM PDT
Date & Time Temp (°F) RH (%) Dew Pt (°F) Wet Bulb (°F) Wind Dir (°) Wind Spd (mph) Wind Gust (mph) WindChill (°F) Barometric Pressure (inHg) New Snow (in) SnowDepth (in) Latest Rain (In) Daily Rain (In) Daily Min Temp (°F) Daily Max Temp (°F)
3/29/20 - 1330 35.1 76 28.5 32.1 SSE | 160 3.3 8.9 35.1 30.04 0.0 77.7 0.00 0.09 28.4 36.4
3/29/20 - 1315 35.7 74 28.4 32.4 SSE | 164 3.7 10.2 31.4 30.03 0.0 77.7 0.00 0.09 28.4 36.4
3/29/20 - 1300 36.3 71 27.7 32.5 SSE | 160 4.7 9.4 36.3 30.02 0.0 77.8 0.00 0.09 28.4 36.4
3/29/20 - 1245 35.8 75 28.7 32.6 S | 175 4.3 10.6 35.8 30.02 0.0 77.9 0.00 0.09 28.4 36.1
3/29/20 - 1230 34.9 73 27.1 31.5 SE | 131 3.1 9.3 30.1 30.03 0.0 78.2 0.00 0.09 28.4 35.1
3/29/20 - 1215 34.1 76 27.3 31.1 SSE | 152 3.9 14.3 34.1 30.02 0.0 78.3 0.00 0.09 28.4 34.8
3/29/20 - 1200 33.8 75 26.7 30.8 N | 4 2.5 9.1 33.8 30.03 0.0 78.4 0.00 0.09 28.4 34.8
3/29/20 - 1145 33.8 76 27.1 30.9 E | 94 1.7 5.7 33.8 30.03 0.2 78.6 0.00 0.09 28.4 34.8
3/29/20 - 1130 33.8 75 26.6 30.7 SSE | 154 3.2 7.8 33.8 30.04 0.2 78.5 0.00 0.09 28.4 34.8
3/29/20 - 1115 34.6 73 26.8 31.2 S | 174 3.4 10.6 34.6 30.04 0.3 78.6 0.00 0.09 28.4 34.6
3/29/20 - 1100 32.3 80 26.9 30.0 SSE | 156 2.4 8.2 27.2 30.04 0.4 78.8 0.00 0.09 28.4 33.1
3/29/20 - 1045 32.3 84 28.0 30.4 SE | 146 2.9 8.2 32.3 30.03 0.4 78.9 0.00 0.09 28.4 32.7
3/29/20 - 1030 31.9 83 27.3 29.9 SE | 127 3.8 10.8 31.9 30.03 0.4 78.9 0.00 0.09 28.4 32.4
3/29/20 - 1015 31.1 88 27.8 29.7 SE | 141 3.7 11.9 27.9 30.02 0.4 79.0 0.01 0.09 28.4 32.4
3/29/20 - 1000 32.2 82 27.4 30.2 SE | 136 3.2 8.5 32.2 30.02 0.2 78.8 0.00 0.08 28.4 32.4
3/29/20 - 0945 31.0 86 27.1 29.4 SSE | 161 4.3 12.6 31.0 30.01 0.2 78.9 0.00 0.08 28.4 31.2
3/29/20 - 0930 30.8 85 26.9 29.1 SSE | 156 4.6 10.9 27.1 30.01 0.1 78.9 0.00 0.08 28.4 30.9
3/29/20 - 0915 30.4 88 27.3 29.1 SE | 133 4.0 10.8 22.1 30.00 0.2 79.0 0.00 0.08 28.4 30.6
3/29/20 - 0900 30.0 87 26.6 28.6 SE | 140 5.3 13.6 30.0 30.00 0.2 78.9 0.01 0.08 28.4 30.3
3/29/20 - 0845 30.2 86 26.4 28.6 SSE | 150 6.4 13.4 30.2 30.00 0.1 78.9 0.00 0.07 28.4 30.3
3/29/20 - 0830 29.9 88 26.9 28.6 SE | 143 5.6 11.9 22.2 30.00 0.0 78.6 0.00 0.07 28.4 30.0
3/29/20 - 0815 29.8 89 27.0 28.6 SSE | 165 4.4 8.8 29.8 30.00 0.0 78.8 0.00 0.07 28.4 29.8
3/29/20 - 0800 29.5 89 26.7 28.3 S | 170 3.2 7.3 24.5 29.99 0.0 78.7 0.00 0.07 28.4 29.7
3/29/20 - 0745 29.2 90 26.6 28.1 SSE | 161 4.0 9.0 29.2 29.99 0.0 78.7 0.00 0.07 28.4 29.5
Max 36.3 90 28.7 32.6 - 6.4 14.3 36.3 30.04 0.4 79.0 0.01 0.09 28.4 36.4
Avg 32.4 81 27.2 30.2 - 3.8 10.1 30.7 30.02 0.1 78.6 0.00 - - -
Min 29.2 71 26.4 28.1 - 1.7 5.7 22.1 29.99 0.0 77.7 0.00 0.07 28.4 29.5
Total - - - - - - - - - - - 0.02 - - -